Terminal Aerodrome Forecast
Issued by NWS

Home | Current Version | Previous Version | Text Only | Print | Product List | Glossary On
Versions: 1 2 3 4 5 6 7 8 9 10 11 12 13
834
FTUS45 KTFX 251131
TAFCTB
TAF
KCTB 251131Z 2512/2612 31020G29KT P6SM VCSH SCT025 BKN040
      TEMPO 2512/2514 -SHRA BKN025
     FM251500 32031G43KT P6SM SCT035 BKN070
     FM252000 33024G35KT P6SM SCT050 BKN080
     FM260200 32011KT P6SM SCT045 BKN080=

USA.gov is the U.S. government's official web portal to all federal, state and local government web resources and services.